Flight Track Log - Related Links

Times and Time Zones

All times are in EDT time to prevent confusion due to time zone crossing. See the N770NC flight status page for this flight to view local times or setup timezone preferences in your user account.

Time Position Orientation Groundspeed Altitude Reporting Facility
EDT Latitude Longitude Course Direction KTS MPH feet Rate Location/Type
Wed 07:45:11 AM 42.1972 -83.3636 292° West 164 189 1,600  Level Cleveland Center
Wed 07:46:12 AM 42.1544 -83.4122 220° Southwest 234 269 3,300 2,164 Climbing Cleveland Center
Wed 07:47:13 AM 42.1153 -83.4803 232° Southwest 232 267 6,000 2,459 Climbing Cleveland Center
Wed 07:48:00 AM 42.3274 -83.8524 292° West  Level FlightAware Approximate
Wed 07:48:14 AM 42.1381 -83.5600 291° West 250 288 8,300  Level Cleveland Center
Wed 07:49:00 AM 42.3644 -83.9758 292° West  Level FlightAware Approximate
Wed 07:49:14 AM 42.1758 -83.6289 307° West 235 270 10,600  Level Cleveland Center
Wed 07:50:00 AM 42.4015 -84.0993 292° West  Level FlightAware Approximate
Wed 07:50:19 AM 42.2233 -83.7236 304° West 281 323 11,700  Level Cleveland Center
Wed 07:51:19 AM 42.2706 -83.8269 302° West 305 351 13,500 1,900 Climbing Cleveland Center
Wed 07:52:19 AM 42.3281 -83.9311 307° West 328 377 15,500 2,150 Climbing Cleveland Center
Wed 07:53:19 AM 42.3831 -84.0494 302° West 356 410 17,800 2,400 Climbing Cleveland Center
Wed 07:54:19 AM 42.4125 -84.1719 288° West 361 415 20,300 2,300 Climbing Cleveland Center
Wed 07:55:19 AM 42.4103 -84.3125 269° West 357 411 22,400 1,850 Climbing Cleveland Center
Wed 07:56:19 AM 42.4264 -84.4514 279° West 363 418 24,000 1,185 Climbing Cleveland Center
Wed 07:56:40 AM 42.4314 -84.4872 281° West 377 434 24,000 434 Level Chicago Center
Wed 07:57:42 AM 42.4389 -84.6358 274° West 389 448 24,600 968 Climbing Chicago Center
Wed 07:58:44 AM 42.4397 -84.7833 270° West 391 450 26,000 1,306 Climbing Chicago Center
Wed 07:59:46 AM 42.4311 -84.9275 265° West 387 445 27,300 968 Climbing Chicago Center
Wed 08:00:48 AM 42.4400 -85.0942 274° West 373 429 28,000 341 Climbing Chicago Center
Wed 08:01:49 AM 42.4475 -85.2394 274° West 380 437 28,000 -390 Level Chicago Center
Wed 08:02:51 AM 42.4528 -85.3725 273° West 363 418 27,200 -1,694 Descending Chicago Center
Wed 08:03:53 AM 42.4597 -85.4931 275° West 330 380 24,500 -2,516 Descending Chicago Center
Wed 08:04:55 AM 42.4619 -85.6183 271° West 331 381 22,000 -1,935 Descending Chicago Center
Wed 08:05:57 AM 42.4631 -85.7383 271° West 322 371 20,500 -976 Descending Chicago Center
Wed 08:06:58 AM 42.4589 -85.8544 267° West 311 358 20,000 -244 Descending Chicago Center
Wed 08:08:00 AM 42.4503 -85.9756 265° West 320 368 20,000  Level Chicago Center
Wed 08:09:02 AM 42.4556 -86.1194 273° West 319 367 20,000  Level Chicago Center
Wed 08:10:04 AM 42.4736 -86.2300 283° West 302 348 20,000  Level Chicago Center
Wed 08:11:06 AM 42.5028 -86.3344 291° West 296 341 20,000 -290 Level Chicago Center
Wed 08:12:08 AM 42.5106 -86.4447 276° West 295 339 19,400 -1,258 Descending Chicago Center
Wed 08:13:10 AM 42.5158 -86.5558 274° West 296 341 17,400 -1,742 Descending Chicago Center
Wed 08:14:12 AM 42.5242 -86.6653 276° West 291 335 15,800 -1,694 Descending Chicago Center
Wed 08:15:14 AM 42.5244 -86.7672 270° West 286 329 13,900 -2,177 Descending Chicago Center
Wed 08:16:16 AM 42.5022 -86.8842 256° West 271 312 11,300 -2,146 Descending Chicago Center
Wed 08:17:17 AM 42.4847 -86.9847 257° West 273 314 9,500 -1,122 Descending Chicago Center
Wed 08:18:19 AM 42.4642 -87.0789 254° West 265 305 9,000 -194 Descending Chicago Center
Wed 08:19:21 AM 42.4425 -87.1744 253° West 265 305 9,100  Climbing Chicago Center
Wed 08:20:23 AM 42.4131 -87.2686 247° West 274 315 9,000 -677 Descending Chicago Center
Wed 08:21:25 AM 42.3828 -87.3586 246° West 268 308 7,700 -968 Descending Chicago Center
Wed 08:22:27 AM 42.3542 -87.4606 249° West 257 296 7,000 -290 Descending Chicago Center
Wed 08:23:29 AM 42.3125 -87.5481 237° Southwest 254 292 7,100 48 Climbing Chicago Center
Wed 08:24:31 AM 42.2564 -87.6089 219° Southwest 261 300 7,100 -677 Level Chicago Center
Wed 08:25:33 AM 42.1997 -87.6719 220° Southwest 266 306 5,700 -1,355 Descending Chicago Center
Wed 08:26:35 AM 42.1428 -87.7372 220° Southwest 270 311 4,300 -1,306 Descending Chicago Center
Wed 08:27:37 AM 42.0883 -87.7961 219° Southwest 257 296 3,000 -1,306 Descending Chicago Center
Wed 08:28:39 AM 42.0344 -87.8567 220° Southwest 224 258 1,600 -1,355 Descending Chicago Center

Login

Don't have an account? Register now (free) for customized features, flight alerts, and more!